Terminal Aerodrome Forecast
Issued by NWS

Home | Current Version | Previous Version | Text Only | Print | Product List | Glossary On
Versions: 1 2 3 4 5 6 7 8 9 10 11 12 13 14 15 16 17 18 19 20
622
FTUS44 KJAN 262342
TAFHKS
TAF
KHKS 262342Z 2700/2724 18009KT P6SM SCT040
     FM270800 17008KT P6SM SCT008 BKN012
     FM271400 20012G18KT P6SM BKN015 BKN025
     FM271700 20012G18KT P6SM SCT030 BKN040=

USA.gov is the U.S. government's official web portal to all federal, state and local government web resources and services.